createdAt,value
2022-10-05T00:04:53.998Z,2.73
2022-10-05T00:09:59.055Z,3.00
2022-10-05T00:15:03.364Z,2.67
2022-10-05T00:20:15.493Z,2.97
2022-10-05T00:25:23.747Z,2.58
2022-10-05T00:30:27.957Z,2.97
2022-10-05T00:40:46.581Z,2.60
2022-10-05T00:45:51.264Z,1.48
2022-10-05T00:51:02.114Z,2.50
2022-10-05T00:56:10.722Z,2.30
2022-10-05T01:01:14.834Z,1.70
2022-10-05T01:11:27.523Z,2.30
2022-10-05T01:16:37.507Z,2.40
2022-10-05T01:21:47.462Z,2.00
2022-10-05T01:27:09.293Z,1.55
2022-10-05T01:32:21.902Z,2.08
2022-10-05T01:37:28.216Z,0.93
2022-10-05T01:42:35.462Z,1.80
2022-10-05T01:47:46.702Z,1.23
2022-10-05T01:52:54.950Z,1.48
2022-10-05T01:58:04.988Z,2.00
2022-10-05T02:03:14.199Z,1.30
2022-10-05T02:08:20.377Z,1.70
2022-10-05T02:13:27.370Z,1.90
2022-10-05T02:18:35.595Z,1.60
2022-10-05T02:23:41.417Z,1.88
2022-10-05T02:28:48.584Z,1.65
2022-10-05T02:34:19.757Z,1.90
2022-10-05T02:39:31.441Z,1.33
2022-10-05T02:44:39.170Z,1.52
2022-10-05T02:49:47.573Z,1.13
2022-10-05T02:54:53.944Z,1.83
2022-10-05T03:00:01.245Z,1.80
2022-10-05T03:05:09.888Z,1.67
2022-10-05T03:10:14.536Z,1.63
2022-10-05T03:15:24.205Z,1.88
2022-10-05T03:20:34.688Z,1.50
2022-10-05T03:26:04.425Z,1.10
2022-10-05T03:31:13.317Z,1.85
2022-10-05T03:36:23.520Z,1.42
2022-10-05T03:41:31.622Z,2.28
2022-10-05T03:46:41.227Z,1.83
2022-10-05T03:51:51.600Z,1.90
2022-10-05T03:56:57.163Z,1.95
2022-10-05T04:02:02.515Z,1.90
2022-10-05T04:07:10.796Z,1.60
2022-10-05T04:12:18.228Z,1.70
2022-10-05T04:17:29.360Z,1.70
2022-10-05T04:22:37.874Z,1.52
2022-10-05T04:27:43.183Z,1.80
2022-10-05T04:32:47.039Z,2.00
2022-10-05T04:37:56.049Z,1.23
2022-10-05T04:43:02.114Z,1.85
2022-10-05T04:48:25.574Z,1.90
2022-10-05T04:53:34.127Z,1.45
2022-10-05T04:58:50.103Z,1.58
2022-10-05T05:04:00.768Z,1.67
2022-10-05T05:09:16.440Z,1.50
2022-10-05T05:14:32.644Z,1.67
2022-10-05T05:19:41.396Z,1.75
2022-10-05T05:24:55.894Z,1.75
2022-10-05T05:30:04.742Z,1.45
2022-10-05T05:35:26.825Z,1.60
2022-10-05T05:40:34.173Z,1.77
2022-10-05T05:45:43.142Z,1.50
2022-10-05T05:50:51.093Z,1.75
2022-10-05T05:56:01.302Z,1.58
2022-10-05T06:01:06.588Z,1.50
2022-10-05T06:06:11.902Z,1.30
2022-10-05T06:11:18.807Z,1.60
2022-10-05T06:16:24.493Z,1.77
2022-10-05T06:21:30.121Z,1.60
2022-10-05T06:26:41.240Z,1.40
2022-10-05T06:31:56.487Z,0.85
2022-10-05T06:37:03.332Z,1.50
2022-10-05T06:42:15.066Z,1.92
2022-10-05T06:47:23.223Z,1.20
2022-10-05T06:52:27.317Z,2.03
2022-10-05T06:57:39.124Z,1.45
2022-10-05T07:02:45.323Z,1.60
2022-10-05T07:07:50.197Z,1.58
2022-10-05T07:13:00.873Z,1.83
2022-10-05T07:18:07.986Z,1.70
2022-10-05T07:23:21.275Z,1.40
2022-10-05T07:28:29.280Z,1.60
2022-10-05T07:33:37.757Z,1.40
2022-10-05T07:38:44.819Z,1.48
2022-10-05T07:44:02.639Z,2.33
2022-10-05T07:49:10.366Z,1.88
2022-10-05T07:54:20.457Z,2.55
2022-10-05T07:59:28.659Z,2.10
2022-10-05T08:04:39.371Z,1.90
2022-10-05T08:09:46.972Z,2.90
2022-10-05T08:14:54.434Z,2.05
2022-10-05T08:20:02.170Z,2.13
2022-10-05T08:25:07.125Z,1.60
2022-10-05T08:30:12.589Z,2.00
2022-10-05T08:35:20.177Z,1.80
2022-10-05T08:40:35.075Z,1.75
2022-10-05T08:45:58.522Z,1.70
2022-10-05T08:51:25.322Z,3.20
2022-10-05T08:56:33.007Z,1.70
2022-10-05T09:01:40.748Z,1.40
2022-10-05T09:06:54.484Z,1.95
2022-10-05T09:12:17.369Z,1.60
2022-10-05T09:17:29.386Z,1.80
2022-10-05T09:22:46.826Z,1.60
2022-10-05T09:28:00.221Z,1.60
2022-10-05T09:33:26.013Z,1.70
2022-10-05T09:38:33.891Z,1.60
2022-10-05T09:44:01.634Z,1.67
2022-10-05T09:49:22.156Z,1.60
2022-10-05T09:54:35.206Z,1.70
2022-10-05T10:00:09.174Z,1.90
2022-10-05T10:05:24.687Z,2.20
2022-10-05T10:10:48.208Z,1.60
2022-10-05T10:16:04.124Z,1.50
2022-10-05T10:21:18.182Z,1.80
2022-10-05T10:26:34.755Z,1.90
2022-10-05T10:31:45.219Z,2.10
2022-10-05T10:37:02.391Z,2.00
2022-10-05T10:42:16.942Z,1.92
2022-10-05T10:47:38.066Z,1.67
2022-10-05T10:52:49.199Z,1.88
2022-10-05T10:57:58.316Z,1.80
2022-10-05T11:03:23.948Z,1.50
2022-10-05T11:08:47.819Z,1.80
2022-10-05T11:14:06.175Z,1.98
2022-10-05T11:19:35.240Z,1.90
2022-10-05T11:24:54.884Z,1.70
2022-10-05T11:30:12.525Z,1.50
2022-10-05T11:35:31.220Z,1.48
2022-10-05T11:40:53.418Z,1.70
2022-10-05T11:46:01.818Z,1.52
2022-10-05T11:51:28.547Z,1.60
2022-10-05T11:56:36.614Z,1.40
2022-10-05T12:01:42.990Z,1.50
2022-10-05T12:06:54.862Z,1.45
2022-10-05T12:12:04.609Z,1.30
2022-10-05T12:17:12.571Z,1.40
2022-10-05T12:22:19.221Z,1.30
2022-10-05T12:27:25.535Z,1.58
2022-10-05T12:32:33.633Z,1.70
2022-10-05T12:37:42.556Z,1.50
2022-10-05T12:42:52.048Z,1.48
2022-10-05T12:48:02.175Z,1.50
2022-10-05T12:53:26.174Z,1.30
2022-10-05T12:58:34.509Z,1.30
2022-10-05T13:03:40.523Z,1.10
2022-10-05T13:08:55.006Z,1.58
2022-10-05T13:14:07.931Z,0.80
2022-10-05T13:19:14.909Z,1.45
2022-10-05T13:24:21.279Z,1.50
2022-10-05T13:29:29.188Z,1.23
2022-10-05T13:34:34.883Z,1.23
2022-10-05T13:39:54.475Z,1.20
2022-10-05T13:45:01.064Z,1.10
2022-10-05T13:50:06.737Z,1.00
2022-10-05T13:55:16.097Z,1.20
2022-10-05T14:00:25.620Z,1.10
2022-10-05T14:05:33.800Z,1.17
2022-10-05T14:10:41.321Z,1.30
2022-10-05T14:15:57.365Z,1.20
2022-10-05T14:21:04.545Z,1.33
2022-10-05T14:26:17.878Z,0.95
2022-10-05T14:31:30.050Z,1.20
2022-10-05T14:36:35.070Z,1.08
2022-10-05T14:41:43.274Z,0.95
2022-10-05T14:46:54.445Z,1.42
2022-10-05T14:52:23.356Z,0.95
2022-10-05T15:02:58.723Z,1.10
2022-10-05T15:08:16.083Z,1.10
2022-10-05T15:18:32.040Z,0.93
2022-10-05T15:23:41.366Z,0.80
2022-10-05T15:28:52.277Z,1.15
2022-10-05T15:33:58.674Z,0.90
2022-10-05T15:39:18.146Z,1.30
2022-10-05T15:44:26.233Z,1.25
2022-10-05T15:49:34.412Z,1.10
2022-10-05T15:55:06.150Z,1.20
2022-10-05T16:00:11.816Z,1.50
2022-10-05T16:05:45.709Z,1.50
2022-10-05T16:10:50.831Z,1.00
2022-10-05T16:15:57.397Z,1.40
2022-10-05T16:21:10.967Z,1.60
2022-10-05T16:26:20.857Z,1.48
2022-10-05T16:31:27.345Z,1.42
2022-10-05T16:36:44.676Z,1.48
2022-10-05T16:41:51.874Z,1.17
2022-10-05T16:46:58.665Z,1.38
2022-10-05T16:52:02.521Z,2.60
2022-10-05T16:57:11.426Z,3.00
2022-10-05T17:02:18.914Z,2.15
2022-10-05T17:07:37.770Z,1.52
2022-10-05T17:12:47.594Z,2.65
2022-10-05T17:18:03.618Z,2.20
2022-10-05T17:23:18.469Z,2.28
2022-10-05T17:28:37.687Z,2.28
2022-10-05T17:33:55.361Z,3.00
2022-10-05T17:39:13.130Z,5.10
2022-10-05T17:44:24.493Z,4.10
2022-10-05T17:49:42.534Z,4.20
2022-10-05T17:55:28.235Z,3.05
2022-10-05T18:00:34.154Z,2.88
2022-10-05T18:05:37.520Z,2.70
2022-10-05T18:15:48.488Z,2.50
2022-10-05T18:21:08.656Z,2.80
2022-10-05T18:26:21.549Z,2.20
2022-10-05T18:31:35.786Z,5.73
2022-10-05T18:36:47.472Z,2.25
2022-10-05T18:41:58.829Z,2.15
2022-10-05T18:47:07.321Z,2.03
2022-10-05T18:52:14.475Z,1.92
2022-10-05T18:57:34.824Z,2.15
2022-10-05T19:02:40.668Z,2.03
2022-10-05T19:07:59.181Z,1.55
2022-10-05T19:13:07.028Z,2.10
2022-10-05T19:18:37.484Z,2.80
2022-10-05T19:23:53.602Z,3.55
2022-10-05T19:29:02.648Z,2.67
2022-10-05T19:34:19.239Z,3.20
2022-10-05T19:39:30.029Z,3.60
2022-10-05T19:44:39.376Z,3.83
2022-10-05T19:49:44.739Z,4.20
2022-10-05T19:54:51.627Z,3.60
2022-10-05T19:59:58.019Z,2.92
2022-10-05T20:05:07.983Z,3.35
2022-10-05T20:10:32.591Z,2.92
2022-10-05T20:15:55.564Z,2.88
2022-10-05T20:20:58.305Z,2.72
2022-10-05T20:26:18.488Z,2.30
2022-10-05T20:31:22.785Z,2.13
2022-10-05T20:36:25.899Z,1.48
2022-10-05T20:41:28.910Z,2.33
2022-10-05T20:46:34.474Z,2.08
2022-10-05T20:51:37.695Z,1.17
2022-10-05T20:56:42.725Z,2.10
2022-10-05T21:01:48.123Z,2.03
2022-10-05T21:06:51.065Z,2.90
2022-10-05T21:11:55.614Z,2.33
2022-10-05T21:16:59.733Z,2.00
2022-10-05T21:22:02.541Z,2.13
2022-10-05T21:27:05.459Z,1.90
2022-10-05T21:32:11.997Z,0.98
2022-10-05T21:37:15.434Z,2.30
2022-10-05T21:42:18.118Z,1.50
2022-10-05T21:47:22.397Z,1.67
2022-10-05T21:52:25.214Z,1.23
2022-10-05T21:57:29.625Z,1.90
2022-10-05T22:02:33.814Z,1.70
2022-10-05T22:07:36.471Z,2.00
2022-10-05T22:12:39.338Z,1.60
2022-10-05T22:17:43.842Z,1.50
2022-10-05T22:22:46.999Z,1.50
2022-10-05T22:27:50.810Z,1.67
2022-10-05T22:32:55.108Z,1.52
2022-10-05T22:37:58.018Z,1.25
2022-10-05T22:43:00.693Z,1.50
2022-10-05T22:48:04.993Z,1.45
2022-10-05T22:53:07.653Z,1.52
2022-10-05T22:58:10.390Z,1.50
2022-10-05T23:03:16.041Z,1.48
2022-10-05T23:08:18.946Z,1.70
2022-10-05T23:13:22.603Z,1.75
2022-10-05T23:18:27.112Z,1.48
2022-10-05T23:23:30.084Z,1.50
2022-10-05T23:28:33.703Z,1.20
2022-10-05T23:38:41.111Z,1.40
2022-10-05T23:43:44.332Z,1.70
2022-10-05T23:48:47.164Z,1.67
2022-10-05T23:53:51.690Z,1.75
2022-10-05T23:58:54.687Z,1.80
